Latest Weather Observations for Ngukurr AWS

IDD60801

Issued at 8:31 pm CST Sunday 21 December 2014 (issued every 30 minutes, with the page automatically refreshed every 10 minutes)

About weather observations | Map of weather stations | Latest weather observations for NT | Other Formats
Station Details ID: 014299 Name: NGUKURR AIRPORT Lat: -14.72 Lon: 134.75 Height: 14.46 m
Data from the previous 72 hours. | See also: Recent months at Ngukurr AWS
Date/Time
CST
Temp
°C
App
Temp
°C
Dew
Point
Rel
Hum
%
Delta-T
°C
Wind Press
QNH
hPa
Press
MSL
hPa
Rain
since 9 am
mm
Dir
 
Spd
km/h
Gust
km/h
Spd
kts
Gust
kts
21/08:30pm 33.1 34.7 22.2 52 7.5 ENE 17 28 9 15 1006.2 1006.1 0.0
21/08:00pm 33.9 35.1 20.6 45 8.9 E 15 22 8 12 1005.6 1005.5 0.0
21/07:30pm 34.4 34.3 19.6 41 9.8 E 19 28 10 15 1005.1 1005.0 0.0
21/07:00pm 34.8 34.5 20.4 43 9.7 E 22 30 12 16 1004.4 1004.3 0.0
21/06:30pm 35.5 35.9 20.6 41 10.1 E 19 33 10 18 1003.9 1003.8 0.0
21/06:00pm 35.8 34.8 19.7 39 10.8 ENE 24 35 13 19 1003.4 1003.3 0.0
21/05:30pm 37.5 37.3 21.2 38 11.1 E 24 33 13 18 1003.0 1002.9 0.0
21/05:00pm 39.6 39.7 16.5 25 14.9 NNE 11 19 6 10 1002.5 1002.4 0.0
21/04:30pm 40.0 39.5 16.8 25 15.1 NNE 15 28 8 15 1002.6 1002.5 0.0
21/04:00pm 40.2 41.5 17.0 25 15.1 SE 6 19 3 10 1002.8 1002.7 0.0
21/03:30pm 39.2 39.6 16.2 26 14.8 NNE 9 19 5 10 1002.9 1002.8 0.0
21/03:00pm 39.6 38.9 16.5 25 14.9 NNE 15 20 8 11 1003.6 1003.5 0.0
21/02:30pm 38.7 40.0 17.5 29 13.9 NNE 7 22 4 12 1004.3 1004.2 0.0
21/02:00pm 38.8 39.6 18.1 29 13.6 NNW 11 19 6 10 1005.1 1005.0 0.0
21/01:30pm 39.4 40.0 18.6 29 13.8 NNE 13 19 7 10 1005.9 1005.8 0.0
21/01:00pm 38.5 40.0 18.9 32 13.0 NNE 9 17 5 9 1006.6 1006.5 0.0
21/12:30pm 38.1 39.7 20.0 35 12.2 NNW 11 22 6 12 1007.2 1007.1 0.0
21/12:00pm 37.4 38.6 19.8 35 11.8 N 13 20 7 11 1007.8 1007.7 0.0
21/11:30am 36.3 38.4 20.1 38 10.9 NNW 9 19 5 10 1008.0 1007.9 0.0
21/11:00am 36.2 38.0 20.4 39 10.6 NW 11 20 6 11 1008.6 1008.5 0.0
21/10:30am 35.3 36.6 20.8 42 9.8 NNW 15 26 8 14 1009.1 1009.0 0.0
21/10:00am 34.8 35.5 20.4 43 9.7 NNW 17 24 9 13 1009.2 1009.1 0.0
21/09:30am 34.0 36.5 21.8 49 8.3 NW 11 19 6 10 1009.3 1009.2 0.0
21/09:00am 33.4 36.7 22.5 52 7.5 NW 9 19 5 10 1009.5 1009.4 5.0
21/08:30am 32.2 35.2 22.6 57 6.6 NW 11 17 6 9 1009.1 1009.0 5.0
21/08:00am 31.4 34.7 23.2 61 5.7 NNW 11 19 6 10 1008.9 1008.8 5.0
21/07:30am 30.4 33.3 23.1 65 5.0 NNW 13 17 7 9 1008.6 1008.5 5.0
21/07:00am 29.7 33.5 23.4 69 4.3 N 9 15 5 8 1008.5 1008.4 5.0
21/06:30am 28.7 32.9 23.1 71 3.8 N 6 11 3 6 1007.9 1007.8 5.0
21/06:00am 28.2 32.5 23.6 76 3.2 N 7 9 4 5 1007.7 1007.6 5.0
21/05:30am 27.7 33.4 23.7 79 2.8 CALM 0 6 0 3 1007.6 1007.5 5.0
21/05:00am 27.8 32.7 23.6 78 2.9 N 4 4 2 2 1007.3 1007.2 5.0
21/04:30am 27.7 32.8 24.1 81 2.5 NNE 4 4 2 2 1007.3 1007.2 5.0
21/04:00am 27.8 33.9 24.4 82 2.4 CALM 0 0 0 0 1007.5 1007.4 5.0
21/03:30am 27.9 33.3 23.9 79 2.8 ESE 2 4 1 2 1007.2 1007.1 5.0
21/03:00am 28.1 34.4 24.7 82 2.4 CALM 0 0 0 0 1007.2 1007.1 5.0
21/02:30am 28.5 34.4 24.1 77 3.1 CALM 0 0 0 0 1007.4 1007.3 5.0
21/02:00am 28.8 34.4 23.5 73 3.6 CALM 0 0 0 0 1007.6 1007.5 5.0
21/01:30am 29.2 33.4 22.4 66 4.6 W 4 7 2 4 1007.8 1007.7 5.0
21/01:00am 29.2 33.7 22.9 69 4.3 NW 4 6 2 3 1008.0 1007.9 5.0
21/12:30am 29.4 33.5 22.9 68 4.4 NNW 6 9 3 5 1008.4 1008.3 5.0
21/12:00am 29.9 34.8 23.6 69 4.4 ENE 4 6 2 3 1008.6 1008.5 5.0
 
Date/Time
CST
Temp
°C
App
Temp
°C
Dew
Point
Rel
Hum
%
Delta-T
°C
Wind Press
QNH
hPa
Press
MSL
hPa
Rain
since 9 am
mm
Dir
 
Spd
km/h
Gust
km/h
Spd
kts
Gust
kts
20/11:30pm 29.4 35.7 24.7 76 3.3 CALM 0 0 0 0 1008.6 1008.5 5.0
20/11:00pm 29.8 35.4 23.5 69 4.3 CALM 0 0 0 0 1008.5 1008.4 5.0
20/10:30pm 30.1 36.2 24.5 72 3.9 CALM 0 4 0 2 1007.9 1007.8 5.0
20/10:00pm 31.3 34.5 20.6 53 7.1 NE 4 6 2 3 1007.4 1007.3 5.0
20/09:30pm 31.8 34.7 20.7 51 7.4 ENE 6 7 3 4 1007.0 1006.9 5.0
20/09:00pm 31.6 35.3 22.6 59 6.2 E 7 11 4 6 1006.6 1006.5 5.0
20/08:30pm 30.8 35.5 24.0 67 4.7 ESE 6 6 3 3 1006.2 1006.1 5.0
20/08:00pm 31.1 35.8 24.0 66 4.9 E 6 9 3 5 1005.9 1005.8 5.0
20/07:30pm 31.4 36.2 23.5 63 5.5 NE 4 6 2 3 1005.5 1005.4 5.0
20/07:00pm 31.4 35.2 22.7 60 6.0 N 7 11 4 6 1004.8 1004.7 5.0
20/06:30pm 29.9 32.8 23.8 70 4.2 NW 15 22 8 12 1004.9 1004.8 5.0
20/06:00pm 29.2 29.5 23.6 72 3.9 SSE 28 50 15 27 1004.6 1004.5 4.0
20/05:50pm 25.6 20.2 18.3 64 4.6 ESE 44 72 24 39 1004.2 1004.1 0.6
20/05:49pm 29.1 24.4 19.4 55 6.3 ESE 43 61 23 33 1004.1 1004.0 0.2
20/05:46pm 31.8 27.3 19.8 49 7.9 ESE 43 61 23 33 1003.9 1003.8 0.0
20/05:38pm 37.3 36.0 16.8 29 13.2 ESE 19 61 10 33 1003.6 1003.5 0.0
20/05:30pm 39.8 41.4 17.8 27 14.5 SSE 6 11 3 6 1003.6 1003.5 0.0
20/05:00pm 39.6 41.4 18.8 30 13.8 S 7 15 4 8 1003.4 1003.3 0.0
20/04:30pm 38.2 39.8 19.1 32 12.7 SW 9 15 5 8 1003.5 1003.4 0.0
20/04:00pm 36.5 37.3 19.0 35 11.6 SSW 13 24 7 13 1003.8 1003.7 0.0
20/03:30pm 39.3 40.5 17.4 27 14.3 SW 7 15 4 8 1004.0 1003.9 0.0
20/03:00pm 38.5 41.2 17.8 29 13.6 CALM 0 2 0 1 1004.4 1004.3 0.0
20/02:30pm 38.6 40.0 17.9 29 13.6 NE 7 9 4 5 1005.0 1004.9 0.0
20/02:00pm 38.1 39.2 18.0 30 13.2 WNW 9 20 5 11 1005.6 1005.5 0.0
20/01:30pm 38.6 40.2 17.9 29 13.6 E 6 13 3 7 1006.1 1006.0 0.0
20/01:00pm 39.0 41.0 18.8 30 13.4 N 6 11 3 6 1006.8 1006.7 0.0
20/12:30pm 38.9 40.2 19.2 31 13.2 W 11 22 6 12 1007.4 1007.3 0.0
20/12:00pm 37.0 38.5 19.0 34 11.9 NW 9 17 5 9 1007.9 1007.8 0.0
20/11:30am 38.1 40.4 19.5 33 12.4 NW 6 13 3 7 1008.4 1008.3 0.0
20/11:00am 36.8 37.7 19.3 36 11.6 NW 13 24 7 13 1008.9 1008.8 0.0
20/10:30am 36.1 37.3 19.1 36 11.3 W 11 20 6 11 1009.1 1009.0 0.0
20/10:00am 35.9 37.2 19.3 37 11.0 W 11 17 6 9 1009.5 1009.4 0.0
20/09:30am 34.6 36.5 19.8 41 9.8 NW 9 28 5 15 1010.1 1010.0 0.0
20/09:00am 34.2 35.9 19.4 41 9.8 WNW 9 17 5 9 1010.4 1010.3 0.0
20/08:30am 33.6 35.1 19.7 44 9.2 NNW 11 19 6 10 1010.3 1010.2 0.0
20/08:00am 32.4 33.8 19.6 46 8.4 NW 11 17 6 9 1010.1 1010.0 0.0
20/07:30am 31.4 33.6 19.7 49 7.7 NNW 7 15 4 8 1009.9 1009.8 0.0
20/07:00am 31.0 33.2 19.7 51 7.4 NNW 7 11 4 6 1009.5 1009.4 0.0
20/06:30am 30.3 33.3 20.0 54 6.8 NW 4 6 2 3 1009.3 1009.2 0.0
20/06:00am 30.2 32.7 20.2 55 6.6 NNW 7 9 4 5 1008.5 1008.4 0.0
20/05:30am 29.9 32.7 21.6 61 5.6 NNW 9 13 5 7 1008.1 1008.0 0.0
20/05:00am 29.2 34.0 22.9 69 4.3 NW 2 6 1 3 1008.0 1007.9 0.0
20/04:30am 28.9 34.1 22.9 70 4.1 CALM 0 0 0 0 1008.2 1008.1 0.0
20/04:00am 28.8 34.1 23.0 71 4.0 CALM 0 0 0 0 1008.3 1008.2 0.0
20/03:30am 29.0 33.5 23.0 70 4.1 NNE 4 6 2 3 1008.0 1007.9 0.0
20/03:00am 29.3 34.1 22.8 68 4.4 ENE 2 6 1 3 1008.2 1008.1 0.0
20/02:30am 29.5 34.1 23.2 69 4.3 ENE 4 6 2 3 1008.3 1008.2 0.0
20/02:00am 29.8 34.6 23.5 69 4.3 E 4 6 2 3 1008.3 1008.2 0.0
20/01:30am 30.0 34.4 23.4 67 4.6 E 6 6 3 3 1008.4 1008.3 0.0
20/01:00am 30.3 35.1 23.5 67 4.7 E 4 6 2 3 1008.8 1008.7 0.0
20/12:30am 30.5 35.2 23.9 68 4.6 ENE 6 7 3 4 1009.1 1009.0 0.0
20/12:00am 31.0 35.2 23.4 64 5.3 E 7 9 4 5 1009.9 1009.8 0.0
 
Date/Time
CST
Temp
°C
App
Temp
°C
Dew
Point
Rel
Hum
%
Delta-T
°C
Wind Press
QNH
hPa
Press
MSL
hPa
Rain
since 9 am
mm
Dir
 
Spd
km/h
Gust
km/h
Spd
kts
Gust
kts
19/11:30pm 31.4 34.9 23.5 63 5.5 E 11 17 6 9 1010.1 1010.0 0.0
19/11:00pm 31.6 35.8 23.4 61 5.7 SE 7 9 4 5 1010.2 1010.1 0.0
19/10:30pm 31.8 35.6 22.8 59 6.2 ESE 7 13 4 7 1010.2 1010.1 0.0
19/10:00pm 31.9 35.4 22.9 59 6.2 ESE 9 15 5 8 1009.9 1009.8 0.0
19/09:30pm 32.6 35.8 22.4 55 7.0 SE 9 17 5 9 1009.9 1009.8 0.0
19/09:00pm 33.2 35.3 21.0 48 8.2 ESE 11 24 6 13 1009.4 1009.3 0.0
19/08:30pm 33.7 35.0 20.1 44 9.1 E 13 22 7 12 1008.3 1008.2 0.0
19/08:00pm 33.8 36.0 21.2 47 8.5 E 11 17 6 9 1007.7 1007.6 0.0
19/07:30pm 34.5 35.2 20.5 44 9.4 E 17 22 9 12 1007.1 1007.0 0.0
19/07:00pm 35.1 35.3 20.2 41 10.0 E 19 28 10 15 1006.4 1006.3 0.0
19/06:30pm 36.1 35.8 20.4 40 10.6 E 22 32 12 17 1006.0 1005.9 0.0
19/06:00pm 37.7 38.4 20.5 36 11.7 E 17 24 9 13 1005.6 1005.5 0.0
19/05:30pm 38.9 39.8 19.2 31 13.2 NE 13 24 7 13 1005.2 1005.1 0.0
19/05:00pm 40.4 40.5 16.6 25 15.4 NNE 11 20 6 11 1005.2 1005.1 0.0
19/04:30pm 39.6 39.7 16.5 25 14.9 ENE 11 19 6 10 1004.9 1004.8 0.0
19/04:00pm 39.7 40.5 17.2 27 14.7 N 9 17 5 9 1004.9 1004.8 0.0
19/03:30pm 39.3 39.1 16.8 26 14.6 N 13 19 7 10 1005.1 1005.0 0.0
19/03:00pm 40.0 40.1 17.4 26 14.8 ENE 13 22 7 12 1005.4 1005.3 0.0
19/02:30pm 40.0 41.2 17.4 26 14.8 NNE 7 17 4 9 1006.1 1006.0 0.0
19/02:00pm 39.3 40.0 18.0 29 14.0 N 11 19 6 10 1006.9 1006.8 0.0
19/01:30pm 38.2 38.6 18.1 30 13.2 N 13 19 7 10 1007.6 1007.5 0.0
19/01:00pm 38.3 38.5 17.7 30 13.5 NNE 13 20 7 11 1008.2 1008.1 0.0
19/12:30pm 38.7 40.4 18.5 30 13.4 ESE 7 17 4 9 1008.6 1008.5 0.0
19/12:00pm 38.5 40.7 20.3 34 12.3 NW 9 19 5 10 1009.0 1008.9 0.0
19/11:30am 37.3 38.4 19.7 35 11.8 NNW 13 30 7 16 1009.7 1009.6 0.0
19/11:00am 37.0 38.8 20.3 37 11.2 NNW 11 20 6 11 1010.1 1010.0 0.0
19/10:30am 36.1 36.5 19.1 36 11.2 NNW 15 20 8 11 1010.5 1010.4 0.0
19/10:00am 35.1 35.9 19.9 41 10.1 NNW 15 22 8 12 1010.6 1010.5 0.0
19/09:30am 34.4 37.3 22.5 50 8.2 NW 11 19 6 10 1010.7 1010.6 0.0
19/09:00am 33.5 36.8 23.2 54 7.1 NW 11 17 6 9 1010.7 1010.6 7.2
19/08:30am 33.1 36.9 24.0 59 6.4 NW 11 17 6 9 1010.6 1010.5 7.2
19/08:00am 31.8 34.8 23.3 60 5.9 NNW 13 19 7 10 1010.4 1010.3 7.2
19/07:30am 30.9 34.5 23.8 66 4.9 NNW 11 17 6 9 1010.4 1010.3 7.2
19/07:00am 30.1 34.5 23.8 69 4.4 NNW 7 11 4 6 1010.1 1010.0 7.2
19/06:30am 29.0 34.3 24.3 76 3.3 N 4 6 2 3 1009.8 1009.7 7.2
19/06:00am 28.9 34.9 24.9 79 2.8 N 2 2 1 1 1009.4 1009.3 7.2
19/05:30am 29.2 34.6 24.5 76 3.3 NNW 4 6 2 3 1008.9 1008.8 7.2
19/05:00am 29.4 34.5 24.7 76 3.3 NNW 6 6 3 3 1008.6 1008.5 7.2
19/04:30am 29.8 35.1 24.4 73 3.8 NNW 4 6 2 3 1008.3 1008.2 7.2
19/04:00am 30.2 35.1 24.4 71 4.0 N 6 13 3 7 1008.3 1008.2 7.2
19/03:30am 30.4 35.5 24.1 69 4.4 N 4 6 2 3 1008.2 1008.1 7.2
19/03:00am 29.8 35.1 23.7 70 4.2 N 2 4 1 2 1007.9 1007.8 7.2
19/02:30am 30.1 34.9 23.5 67 4.6 N 4 6 2 3 1007.6 1007.5 7.2
19/02:00am 30.5 35.0 22.9 64 5.2 NNE 4 6 2 3 1007.7 1007.6 7.2
19/01:30am 30.8 34.9 22.9 62 5.4 NNE 6 11 3 6 1007.7 1007.6 7.2
19/01:00am 30.9 34.8 23.0 62 5.4 NNE 7 9 4 5 1008.0 1007.9 7.2
19/12:30am 30.9 35.0 23.3 64 5.2 NE 7 11 4 6 1008.3 1008.2 7.2
19/12:00am 30.9 35.3 23.5 64 5.1 N 6 9 3 5 1008.4 1008.3 7.2
 
Date/Time
CST
Temp
°C
App
Temp
°C
Dew
Point
Rel
Hum
%
Delta-T
°C
Wind Press
QNH
hPa
Press
MSL
hPa
Rain
since 9 am
mm
Dir
 
Spd
km/h
Gust
km/h
Spd
kts
Gust
kts
18/11:30pm 31.0 34.8 23.4 64 5.3 NE 9 13 5 7 1008.5 1008.4 7.2
18/11:00pm 31.2 35.1 23.0 61 5.6 ENE 7 11 4 6 1008.4 1008.3 7.2
18/10:30pm 31.4 34.8 22.7 60 6.0 ENE 9 13 5 7 1008.6 1008.5 7.2
18/10:00pm 31.5 35.0 22.8 60 6.0 ENE 9 11 5 6 1008.2 1008.1 7.2
18/09:30pm 31.8 35.3 22.2 56 6.5 E 7 11 4 6 1007.9 1007.8 7.2
18/09:00pm 32.1 35.6 22.8 58 6.4 E 9 13 5 7 1007.4 1007.3 7.2

Other Formats:

Comma delimited format used in spreadsheet applications
http://www.bom.gov.au/fwo/IDD60801/IDD60801.94106.axf

JavaScript Object Notation format (JSON) in row-major order
http://www.bom.gov.au/fwo/IDD60801/IDD60801.94106.json